createdAt,value
2023-04-08T00:04:39.046Z,49.30
2023-04-08T00:09:41.474Z,49.47
2023-04-08T00:14:43.772Z,49.58
2023-04-08T00:19:45.923Z,49.47
2023-04-08T00:24:48.116Z,49.75
2023-04-08T00:29:50.281Z,50.20
2023-04-08T00:34:52.977Z,50.57
2023-04-08T00:39:55.179Z,50.43
2023-04-08T00:44:57.478Z,50.43
2023-04-08T00:49:59.820Z,50.80
2023-04-08T00:55:02.015Z,50.60
2023-04-08T01:00:06.934Z,50.40
2023-04-08T01:05:21.304Z,50.90
2023-04-08T01:10:29.451Z,51.46
2023-04-08T01:15:34.361Z,51.38
2023-04-08T01:20:37.626Z,51.05
2023-04-08T01:25:40.222Z,51.08
2023-04-08T01:30:43.737Z,51.35
2023-04-08T01:35:46.569Z,52.21
2023-04-08T01:40:50.338Z,51.80
2023-04-08T01:45:58.727Z,51.64
2023-04-08T01:51:01.744Z,52.24
2023-04-08T01:56:12.344Z,52.08
2023-04-08T02:01:18.531Z,52.57
2023-04-08T02:06:20.756Z,52.10
2023-04-08T02:11:22.897Z,51.70
2023-04-08T02:16:30.509Z,51.42
2023-04-08T02:21:39.460Z,51.91
2023-04-08T02:26:43.629Z,51.61
2023-04-08T02:31:47.406Z,51.21
2023-04-08T02:36:51.445Z,51.82
2023-04-08T02:41:53.555Z,52.09
2023-04-08T02:46:56.201Z,52.20
2023-04-08T02:51:58.346Z,52.42
2023-04-08T02:57:00.580Z,52.29
2023-04-08T03:02:02.724Z,51.84
2023-04-08T03:07:06.748Z,51.83
2023-04-08T03:12:10.591Z,52.11
2023-04-08T03:17:12.759Z,52.33
2023-04-08T03:22:15.265Z,52.23
2023-04-08T03:27:17.446Z,52.77
2023-04-08T03:32:19.917Z,55.11
2023-04-08T03:37:22.018Z,56.16
2023-04-08T03:42:24.684Z,58.47
2023-04-08T03:47:27.645Z,58.83
2023-04-08T03:52:30.003Z,58.88
2023-04-08T03:57:32.102Z,57.46
2023-04-08T04:02:34.500Z,57.02
2023-04-08T04:07:36.796Z,55.52
2023-04-08T04:12:39.023Z,54.45
2023-04-08T04:17:41.394Z,54.29
2023-04-08T04:22:43.728Z,54.44
2023-04-08T04:27:45.904Z,54.48
2023-04-08T04:32:48.202Z,53.81
2023-04-08T04:37:52.206Z,53.70
2023-04-08T04:42:54.415Z,54.17
2023-04-08T04:47:56.703Z,53.86
2023-04-08T04:52:58.959Z,54.25
2023-04-08T04:58:01.178Z,55.23
2023-04-08T05:03:03.454Z,55.96
2023-04-08T05:08:07.474Z,55.41
2023-04-08T05:13:09.557Z,55.87
2023-04-08T05:18:12.053Z,55.46
2023-04-08T05:23:14.216Z,56.63
2023-04-08T05:28:16.316Z,58.24
2023-04-08T05:33:19.763Z,58.28
2023-04-08T05:38:22.026Z,59.26
2023-04-08T05:43:24.247Z,61.79
2023-04-08T05:48:26.604Z,60.67
2023-04-08T05:53:28.811Z,60.31
2023-04-08T05:58:31.011Z,60.64
2023-04-08T06:03:33.426Z,59.19
2023-04-08T06:08:35.720Z,58.26
2023-04-08T06:13:38.715Z,57.00
2023-04-08T06:18:42.049Z,55.70
2023-04-08T06:23:44.439Z,54.77
2023-04-08T06:28:47.242Z,53.20
2023-04-08T06:33:49.382Z,54.38
2023-04-08T06:38:52.079Z,53.96
2023-04-08T06:43:54.746Z,53.88
2023-04-08T06:48:57.067Z,53.98
2023-04-08T06:53:59.360Z,53.18
2023-04-08T06:59:02.042Z,53.63
2023-04-08T07:04:04.419Z,52.31
2023-04-08T07:09:07.457Z,51.92
2023-04-08T07:14:09.691Z,51.37
2023-04-08T07:19:12.248Z,50.83
2023-04-08T07:24:14.534Z,50.72
2023-04-08T07:29:17.202Z,50.86
2023-04-08T07:34:19.343Z,51.00
2023-04-08T07:39:21.660Z,50.81
2023-04-08T07:44:23.892Z,50.26
2023-04-08T07:49:26.218Z,50.78
2023-04-08T07:54:28.373Z,50.56
2023-04-08T07:59:31.676Z,49.81
2023-04-08T08:04:34.279Z,49.17
2023-04-08T08:09:37.003Z,48.92
2023-04-08T08:14:39.279Z,48.32
2023-04-08T08:19:41.750Z,47.90
2023-04-08T08:24:44.187Z,47.69
2023-04-08T08:29:46.331Z,46.95
2023-04-08T08:34:48.609Z,46.70
2023-04-08T08:39:50.700Z,45.84
2023-04-08T08:44:53.075Z,46.46
2023-04-08T08:49:55.703Z,46.32
2023-04-08T08:55:02.466Z,45.66
2023-04-08T09:00:07.425Z,45.21
2023-04-08T09:05:10.094Z,45.27
2023-04-08T09:10:12.466Z,45.07
2023-04-08T09:15:14.894Z,45.21
2023-04-08T09:20:17.439Z,44.33
2023-04-08T09:25:27.095Z,44.32
2023-04-08T09:30:29.291Z,43.67
2023-04-08T09:35:31.489Z,44.76
2023-04-08T09:40:38.410Z,44.55
2023-04-08T09:45:43.178Z,45.15
2023-04-08T09:50:53.206Z,45.75
2023-04-08T09:55:57.827Z,45.28
2023-04-08T10:01:01.105Z,44.68
2023-04-08T10:06:04.146Z,44.06
2023-04-08T10:11:06.776Z,42.95
2023-04-08T10:16:30.242Z,42.85
2023-04-08T10:21:37.737Z,40.91
2023-04-08T10:26:42.138Z,41.26
2023-04-08T10:31:45.648Z,41.64
2023-04-08T10:36:48.198Z,41.27
2023-04-08T10:41:51.809Z,42.23
2023-04-08T10:46:55.363Z,41.11
2023-04-08T10:51:57.487Z,40.98
2023-04-08T10:57:00.328Z,40.33
2023-04-08T11:02:03.243Z,40.10
2023-04-08T11:07:07.298Z,40.58
2023-04-08T11:12:09.566Z,40.64
2023-04-08T11:17:12.883Z,40.61
2023-04-08T11:22:15.107Z,40.76
2023-04-08T11:27:17.434Z,40.57
2023-04-08T11:32:19.960Z,40.19
2023-04-08T11:37:22.823Z,39.91
2023-04-08T11:42:32.401Z,39.80
2023-04-08T11:47:35.845Z,39.21
2023-04-08T11:52:48.382Z,38.70
2023-04-08T11:57:52.308Z,38.20
2023-04-08T12:02:54.619Z,38.04
2023-04-08T12:07:57.035Z,37.87
2023-04-08T12:12:59.228Z,38.33
2023-04-08T12:18:01.916Z,37.45
2023-04-08T12:23:04.867Z,36.81
2023-04-08T12:28:07.050Z,36.76
2023-04-08T12:33:09.349Z,36.31
2023-04-08T12:38:11.517Z,36.31
2023-04-08T12:43:13.812Z,35.94
2023-04-08T12:48:16.151Z,35.62
2023-04-08T12:53:18.664Z,35.69
2023-04-08T12:58:22.385Z,34.84
2023-04-08T13:03:24.889Z,35.44
2023-04-08T13:08:27.125Z,35.65
2023-04-08T13:13:29.288Z,35.38
2023-04-08T13:18:31.642Z,35.00
2023-04-08T13:23:34.058Z,35.18
2023-04-08T13:28:49.799Z,35.76
2023-04-08T13:33:58.786Z,35.51
2023-04-08T13:39:01.081Z,36.21
2023-04-08T13:44:03.279Z,35.47
2023-04-08T13:49:05.489Z,35.39
2023-04-08T13:54:07.601Z,35.29
2023-04-08T13:59:11.830Z,34.95
2023-04-08T14:04:14.032Z,35.15
2023-04-08T14:09:16.300Z,35.03
2023-04-08T14:14:18.558Z,34.30
2023-04-08T14:19:20.990Z,34.81
2023-04-08T14:24:23.153Z,34.98
2023-04-08T14:29:26.632Z,35.28
2023-04-08T14:34:29.932Z,34.74
2023-04-08T14:39:32.143Z,36.02
2023-04-08T14:44:34.348Z,36.78
2023-04-08T14:49:36.731Z,36.51
2023-04-08T14:54:39.302Z,35.53
2023-04-08T14:59:41.689Z,36.39
2023-04-08T15:04:43.862Z,35.38
2023-04-08T15:09:46.250Z,36.59
2023-04-08T15:14:48.346Z,36.59
2023-04-08T15:19:50.660Z,35.91
2023-04-08T15:24:53.010Z,37.07
2023-04-08T15:29:55.166Z,35.60
2023-04-08T15:34:57.280Z,32.81
2023-04-08T15:39:59.471Z,31.42
2023-04-08T15:45:02.051Z,30.50
2023-04-08T15:50:04.532Z,30.66
2023-04-08T15:55:07.402Z,30.35
2023-04-08T16:00:11.714Z,30.27
2023-04-08T16:05:13.940Z,33.38
2023-04-08T16:10:16.244Z,35.66
2023-04-08T16:15:18.953Z,36.96
2023-04-08T16:20:21.563Z,38.36
2023-04-08T16:25:23.831Z,39.88
2023-04-08T16:30:26.794Z,41.23
2023-04-08T16:35:29.138Z,42.28
2023-04-08T16:40:33.662Z,42.78
2023-04-08T16:45:36.089Z,43.62
2023-04-08T16:50:40.177Z,43.63
2023-04-08T16:55:42.375Z,44.44
2023-04-08T17:00:44.561Z,44.59
2023-04-08T17:05:46.956Z,45.18
2023-04-08T17:10:49.996Z,45.00
2023-04-08T17:15:52.474Z,45.25
2023-04-08T17:20:54.607Z,45.11
2023-04-08T17:25:57.467Z,45.48
2023-04-08T17:30:59.925Z,46.06
2023-04-08T17:36:02.183Z,46.11
2023-04-08T17:41:04.711Z,46.39
2023-04-08T17:46:07.264Z,46.29
2023-04-08T17:51:09.623Z,47.47
2023-04-08T17:56:12.317Z,47.91
2023-04-08T18:01:15.034Z,47.92
2023-04-08T18:06:18.286Z,47.62
2023-04-08T18:11:21.560Z,47.36
2023-04-08T18:16:24.766Z,48.23
2023-04-08T18:21:27.521Z,48.21
2023-04-08T18:26:29.857Z,48.16
2023-04-08T18:31:32.013Z,48.16
2023-04-08T18:36:34.940Z,48.24
2023-04-08T18:41:37.694Z,48.28
2023-04-08T18:46:39.948Z,48.44
2023-04-08T18:51:51.624Z,48.36
2023-04-08T18:57:01.988Z,48.02
2023-04-08T19:02:04.391Z,48.37
2023-04-08T19:07:06.845Z,48.29
2023-04-08T19:12:09.435Z,48.23
2023-04-08T19:17:11.951Z,48.54
2023-04-08T19:22:14.195Z,48.46
2023-04-08T19:27:16.672Z,48.42
2023-04-08T19:32:19.525Z,48.58
2023-04-08T19:37:21.761Z,48.83
2023-04-08T19:42:24.558Z,49.09
2023-04-08T19:47:26.839Z,48.79
2023-04-08T19:52:29.085Z,48.95
2023-04-08T19:57:31.399Z,48.78
2023-04-08T20:02:33.666Z,49.10
2023-04-08T20:07:36.045Z,48.96
2023-04-08T20:12:38.405Z,49.19
2023-04-08T20:17:40.672Z,49.05
2023-04-08T20:22:43.841Z,49.01
2023-04-08T20:27:46.364Z,49.43
2023-04-08T20:32:48.809Z,49.55
2023-04-08T20:37:51.515Z,49.45
2023-04-08T20:42:54.142Z,49.01
2023-04-08T20:47:56.332Z,49.42
2023-04-08T20:52:58.785Z,49.60
2023-04-08T20:58:05.884Z,49.66
2023-04-08T21:03:08.269Z,49.90
2023-04-08T21:08:10.441Z,49.60
2023-04-08T21:13:12.543Z,50.02
2023-04-08T21:18:14.983Z,49.91
2023-04-08T21:23:17.155Z,50.18
2023-04-08T21:28:19.258Z,50.26
2023-04-08T21:33:21.853Z,50.38
2023-04-08T21:38:24.179Z,50.04
2023-04-08T21:43:26.456Z,50.04
2023-04-08T21:48:28.599Z,50.37
2023-04-08T21:53:30.988Z,50.29
2023-04-08T21:58:33.216Z,50.33
2023-04-08T22:03:35.548Z,50.52
2023-04-08T22:08:37.872Z,50.66
2023-04-08T22:13:40.018Z,50.96
2023-04-08T22:18:42.560Z,50.98
2023-04-08T22:23:45.690Z,50.73
2023-04-08T22:28:47.873Z,50.86
2023-04-08T22:33:51.506Z,50.70
2023-04-08T22:38:54.031Z,50.33
2023-04-08T22:43:56.478Z,50.13
2023-04-08T22:48:58.770Z,50.06
2023-04-08T22:54:01.404Z,50.08
2023-04-08T22:59:04.084Z,50.04
2023-04-08T23:04:06.450Z,50.64
2023-04-08T23:09:28.061Z,50.70
2023-04-08T23:14:30.320Z,50.84
2023-04-08T23:19:32.755Z,51.45
2023-04-08T23:24:35.482Z,51.72
2023-04-08T23:29:38.025Z,51.91
2023-04-08T23:34:40.283Z,52.46
2023-04-08T23:39:42.575Z,52.84
2023-04-08T23:44:44.714Z,53.08
2023-04-08T23:49:47.154Z,54.01
2023-04-08T23:54:52.160Z,54.72
2023-04-08T23:59:54.371Z,54.88
